Peleus — V2FV2 — position and weather

sailwx.info

Track history (hours):
 
Tides and Currents Weather Stations Pressure Air Temp Water Temp Dewpoint Dewpoint Depression Visibility Wind Speed Wind Dir Waves Ship Positions

Peleus

Last reported at 2014-Aug-27 15:27 UTC. Time now 2014-Aug-29 01:34 UTC.
Position N 40°46' E 029°32'.

Length 88 m; draft 5.8 m.

Type: Ship. MMSI: 305810000.

Date/timePositionNaut miles runAvg speedWind from/ knotsBaromVisibWave heightAir tempDewpointWater temp
2014-Aug-27 15:27N 40°46' E 029°32'5 5.4
2014-Aug-27 14:33N 40°44' E 029°26'6 6.1
2014-Aug-27 13:30N 40°43' E 029°18'7 7.2
2014-Aug-27 12:32N 40°43' E 029°09'8 8.2
2014-Aug-27 11:33N 40°43' E 028°58'8 8.4
2014-Aug-27 10:33N 40°42' E 028°47'263 6.9
2014-Aug-25 20:16N 37°47' E 024°34'5 7.4
2014-Aug-25 19:33N 37°42' E 024°32'7 7.5
2014-Aug-25 18:33N 37°35' E 024°28'10 7.3
2014-Aug-25 17:08N 37°27' E 024°20'5 6.8
2014-Aug-25 16:22N 37°23' E 024°16'5 6.7
2014-Aug-25 15:33N 37°19' E 024°11'11 7.4
2014-Aug-25 14:08N 37°11' E 024°02'5 7.9
2014-Aug-25 13:33N 37°07' E 023°60'8 7.5
2014-Aug-25 12:32N 37°01' E 023°54'8 7.8
2014-Aug-25 11:33N 36°55' E 023°48'9 7.6
2014-Aug-25 10:23N 36°48' E 023°41'6 7.7
2014-Aug-25 09:33N 36°43' E 023°36'8 8.2
2014-Aug-25 08:33N 36°37' E 023°29'8 8.1
2014-Aug-25 07:33N 36°31' E 023°22'  
Track history (hours):
 
Tides and Currents Weather Stations Pressure Air Temp Water Temp Dewpoint Dewpoint Depression Visibility Wind Speed Wind Dir Waves Ship Positions

Peleus

Last reported at 2014-Aug-27 15:27 UTC. Time now 2014-Aug-29 01:34 UTC.
Position N 40°46' E 029°32'.

Length 88 m; draft 5.8 m.

Type: Ship. MMSI: 305810000.

Date/timePositionNaut miles runAvg speedWind from/ knotsBaromVisibWave heightAir tempDewpointWater temp
2014-Aug-27 15:27N 40°46' E 029°32'5 5.4
2014-Aug-27 14:33N 40°44' E 029°26'6 6.1
2014-Aug-27 13:30N 40°43' E 029°18'7 7.2
2014-Aug-27 12:32N 40°43' E 029°09'8 8.2
2014-Aug-27 11:33N 40°43' E 028°58'8 8.4
2014-Aug-27 10:33N 40°42' E 028°47'263 6.9
2014-Aug-25 20:16N 37°47' E 024°34'5 7.4
2014-Aug-25 19:33N 37°42' E 024°32'7 7.5
2014-Aug-25 18:33N 37°35' E 024°28'10 7.3
2014-Aug-25 17:08N 37°27' E 024°20'5 6.8
2014-Aug-25 16:22N 37°23' E 024°16'5 6.7
2014-Aug-25 15:33N 37°19' E 024°11'11 7.4
2014-Aug-25 14:08N 37°11' E 024°02'5 7.9
2014-Aug-25 13:33N 37°07' E 023°60'8 7.5
2014-Aug-25 12:32N 37°01' E 023°54'8 7.8
2014-Aug-25 11:33N 36°55' E 023°48'9 7.6
2014-Aug-25 10:23N 36°48' E 023°41'6 7.7
2014-Aug-25 09:33N 36°43' E 023°36'8 8.2
2014-Aug-25 08:33N 36°37' E 023°29'8 8.1
2014-Aug-25 07:33N 36°31' E 023°22'  

Dump ship's entire track history